Cangas de Onis, Spain
Current Conditions -  °F | °C
As of 11:30 PM on Thursday 20 Nov 2014 (Local Time) from LEAS Reporting Station
Few Clouds Few Clouds  
Wind Chill: 59°   Ceiling: Unl
Heat Index: 59°   Visibility: 4mi
Dew Point: 54°   Wind: 7mph
Humidity: 82%   Direction: 190°S
Pressure: 29.94"   Gusts: NA
Location:  43.35°N, 5.13°W
Report Text: LEAS 202230Z 19006KT 7000 FEW084 15/12 Q1014 TEMPO 4000 BR
Loading
Personal Weather Stations






























Interactive Weather Map New forecast layout! Learn more

10-Day Weather Forecast

Advertisements
Track Severe Weather on mobile